sensor_id;sensor_type;location;lat;lon;timestamp;P1;durP1;ratioP1;P2;durP2;ratioP2
74867;SDS011;63419;42.262;12.210;2022-12-04T00:01:15;5.22;;;2.45;;
74867;SDS011;63419;42.262;12.210;2022-12-04T00:03:51;5.68;;;2.80;;
74867;SDS011;63419;42.262;12.210;2022-12-04T00:06:25;4.93;;;2.22;;
74867;SDS011;63419;42.262;12.210;2022-12-04T00:08:53;5.93;;;1.80;;
74867;SDS011;63419;42.262;12.210;2022-12-04T00:11:23;4.10;;;1.30;;
74867;SDS011;63419;42.262;12.210;2022-12-04T00:13:56;4.35;;;0.40;;
74867;SDS011;63419;42.262;12.210;2022-12-04T00:16:31;3.47;;;0.60;;
74867;SDS011;63419;42.262;12.210;2022-12-04T00:18:59;5.05;;;1.98;;
74867;SDS011;63419;42.262;12.210;2022-12-04T00:21:26;4.05;;;1.48;;
74867;SDS011;63419;42.262;12.210;2022-12-04T00:23:53;5.68;;;3.25;;
74867;SDS011;63419;42.262;12.210;2022-12-04T00:26:22;3.85;;;0.60;;
74867;SDS011;63419;42.262;12.210;2022-12-04T00:28:52;7.80;;;1.75;;
74867;SDS011;63419;42.262;12.210;2022-12-04T00:31:22;4.38;;;1.65;;
74867;SDS011;63419;42.262;12.210;2022-12-04T00:33:51;4.80;;;1.23;;
74867;SDS011;63419;42.262;12.210;2022-12-04T00:38:49;6.05;;;2.03;;
74867;SDS011;63419;42.262;12.210;2022-12-04T00:41:18;5.03;;;2.83;;
74867;SDS011;63419;42.262;12.210;2022-12-04T00:43:50;4.65;;;1.02;;
74867;SDS011;63419;42.262;12.210;2022-12-04T00:46:18;4.25;;;2.10;;
74867;SDS011;63419;42.262;12.210;2022-12-04T00:48:46;2.80;;;0.60;;
74867;SDS011;63419;42.262;12.210;2022-12-04T00:51:15;5.47;;;1.50;;
74867;SDS011;63419;42.262;12.210;2022-12-04T00:53:48;2.67;;;0.50;;
74867;SDS011;63419;42.262;12.210;2022-12-04T00:56:18;5.03;;;1.40;;
74867;SDS011;63419;42.262;12.210;2022-12-04T00:58:52;2.17;;;0.40;;
74867;SDS011;63419;42.262;12.210;2022-12-04T01:01:22;4.30;;;0.40;;
74867;SDS011;63419;42.262;12.210;2022-12-04T01:03:51;1.85;;;0.30;;
74867;SDS011;63419;42.262;12.210;2022-12-04T01:06:27;2.10;;;0.30;;
74867;SDS011;63419;42.262;12.210;2022-12-04T01:08:57;5.93;;;0.50;;
74867;SDS011;63419;42.262;12.210;2022-12-04T01:11:28;1.95;;;0.28;;
74867;SDS011;63419;42.262;12.210;2022-12-04T01:13:56;2.60;;;0.45;;
74867;SDS011;63419;42.262;12.210;2022-12-04T01:16:26;3.95;;;0.45;;
74867;SDS011;63419;42.262;12.210;2022-12-04T01:18:59;6.35;;;0.47;;
74867;SDS011;63419;42.262;12.210;2022-12-04T01:21:27;2.08;;;0.38;;
74867;SDS011;63419;42.262;12.210;2022-12-04T01:24:00;1.90;;;0.30;;
74867;SDS011;63419;42.262;12.210;2022-12-04T01:28:54;1.70;;;0.20;;
74867;SDS011;63419;42.262;12.210;2022-12-04T01:31:22;2.67;;;0.40;;
74867;SDS011;63419;42.262;12.210;2022-12-04T01:33:50;1.77;;;0.30;;
74867;SDS011;63419;42.262;12.210;2022-12-04T01:36:22;3.00;;;0.30;;
74867;SDS011;63419;42.262;12.210;2022-12-04T01:38:53;2.58;;;0.40;;
74867;SDS011;63419;42.262;12.210;2022-12-04T01:41:22;5.68;;;0.43;;
74867;SDS011;63419;42.262;12.210;2022-12-04T01:46:58;5.93;;;0.50;;
74867;SDS011;63419;42.262;12.210;2022-12-04T01:49:28;5.38;;;0.80;;
74867;SDS011;63419;42.262;12.210;2022-12-04T01:52:09;3.25;;;0.60;;
74867;SDS011;63419;42.262;12.210;2022-12-04T01:54:50;4.55;;;0.55;;
74867;SDS011;63419;42.262;12.210;2022-12-04T01:57:27;3.35;;;0.40;;
74867;SDS011;63419;42.262;12.210;2022-12-04T02:00:03;6.80;;;1.17;;
74867;SDS011;63419;42.262;12.210;2022-12-04T02:02:39;3.63;;;0.70;;
74867;SDS011;63419;42.262;12.210;2022-12-04T02:05:12;3.05;;;0.80;;
74867;SDS011;63419;42.262;12.210;2022-12-04T02:07:43;3.38;;;0.82;;
74867;SDS011;63419;42.262;12.210;2022-12-04T02:10:14;2.45;;;0.50;;
74867;SDS011;63419;42.262;12.210;2022-12-04T02:15:53;2.78;;;0.68;;
74867;SDS011;63419;42.262;12.210;2022-12-04T02:18:56;4.18;;;0.90;;
74867;SDS011;63419;42.262;12.210;2022-12-04T02:21:44;4.30;;;0.90;;
74867;SDS011;63419;42.262;12.210;2022-12-04T02:30:29;3.78;;;0.98;;
74867;SDS011;63419;42.262;12.210;2022-12-04T02:35:47;3.53;;;0.80;;
74867;SDS011;63419;42.262;12.210;2022-12-04T02:38:34;2.70;;;0.60;;
74867;SDS011;63419;42.262;12.210;2022-12-04T02:41:17;3.55;;;0.70;;
74867;SDS011;63419;42.262;12.210;2022-12-04T02:44:13;5.38;;;0.90;;
74867;SDS011;63419;42.262;12.210;2022-12-04T02:47:03;3.58;;;0.88;;
74867;SDS011;63419;42.262;12.210;2022-12-04T02:49:39;3.38;;;0.70;;
74867;SDS011;63419;42.262;12.210;2022-12-04T02:52:19;3.17;;;0.85;;
74867;SDS011;63419;42.262;12.210;2022-12-04T02:54:59;3.05;;;0.80;;
74867;SDS011;63419;42.262;12.210;2022-12-04T02:57:35;313.23;;;10.35;;
74867;SDS011;63419;42.262;12.210;2022-12-04T03:00:11;12.85;;;3.00;;
74867;SDS011;63419;42.262;12.210;2022-12-04T03:05:19;11.68;;;2.58;;
74867;SDS011;63419;42.262;12.210;2022-12-04T03:08:02;6.38;;;2.53;;
74867;SDS011;63419;42.262;12.210;2022-12-04T03:10:42;8.00;;;2.05;;
74867;SDS011;63419;42.262;12.210;2022-12-04T03:13:38;4.43;;;1.10;;
74867;SDS011;63419;42.262;12.210;2022-12-04T03:18:41;2.83;;;0.65;;
74867;SDS011;63419;42.262;12.210;2022-12-04T03:21:17;2.47;;;0.22;;
74867;SDS011;63419;42.262;12.210;2022-12-04T03:23:51;4.22;;;0.60;;
74867;SDS011;63419;42.262;12.210;2022-12-04T03:26:48;1.92;;;0.22;;
74867;SDS011;63419;42.262;12.210;2022-12-04T03:32:32;2.05;;;0.43;;
74867;SDS011;63419;42.262;12.210;2022-12-04T03:41:12;4.93;;;0.40;;
74867;SDS011;63419;42.262;12.210;2022-12-04T03:52:23;5.45;;;0.40;;
74867;SDS011;63419;42.262;12.210;2022-12-04T03:55:10;7.88;;;0.50;;
74867;SDS011;63419;42.262;12.210;2022-12-04T03:57:55;6.43;;;0.40;;
74867;SDS011;63419;42.262;12.210;2022-12-04T04:00:41;5.85;;;0.70;;
74867;SDS011;63419;42.262;12.210;2022-12-04T04:03:15;2.60;;;0.30;;
74867;SDS011;63419;42.262;12.210;2022-12-04T04:06:10;6.13;;;0.40;;
74867;SDS011;63419;42.262;12.210;2022-12-04T04:08:46;2.90;;;0.30;;
74867;SDS011;63419;42.262;12.210;2022-12-04T04:11:22;4.88;;;0.30;;
74867;SDS011;63419;42.262;12.210;2022-12-04T04:14:33;2.95;;;0.38;;
74867;SDS011;63419;42.262;12.210;2022-12-04T04:17:40;1.23;;;0.20;;
74867;SDS011;63419;42.262;12.210;2022-12-04T04:20:42;1.25;;;0.20;;
74867;SDS011;63419;42.262;12.210;2022-12-04T04:23:43;3.85;;;0.35;;
74867;SDS011;63419;42.262;12.210;2022-12-04T04:26:34;8.65;;;0.57;;
74867;SDS011;63419;42.262;12.210;2022-12-04T04:29:09;2.90;;;0.35;;
74867;SDS011;63419;42.262;12.210;2022-12-04T04:42:36;6.82;;;0.30;;
74867;SDS011;63419;42.262;12.210;2022-12-04T04:48:06;3.63;;;0.45;;
74867;SDS011;63419;42.262;12.210;2022-12-04T04:50:42;1.15;;;0.20;;
74867;SDS011;63419;42.262;12.210;2022-12-04T04:53:12;2.03;;;0.63;;
74867;SDS011;63419;42.262;12.210;2022-12-04T04:55:46;3.80;;;0.20;;
74867;SDS011;63419;42.262;12.210;2022-12-04T04:58:16;0.95;;;0.20;;
74867;SDS011;63419;42.262;12.210;2022-12-04T05:01:03;1.77;;;0.25;;
74867;SDS011;63419;42.262;12.210;2022-12-04T05:03:40;4.25;;;0.32;;
74867;SDS011;63419;42.262;12.210;2022-12-04T05:06:09;3.92;;;0.30;;
74867;SDS011;63419;42.262;12.210;2022-12-04T05:08:36;2.47;;;0.40;;
74867;SDS011;63419;42.262;12.210;2022-12-04T05:16:18;3.72;;;0.50;;
74867;SDS011;63419;42.262;12.210;2022-12-04T05:18:45;4.25;;;0.45;;
74867;SDS011;63419;42.262;12.210;2022-12-04T05:21:32;3.20;;;0.40;;
74867;SDS011;63419;42.262;12.210;2022-12-04T05:24:00;2.42;;;0.38;;
74867;SDS011;63419;42.262;12.210;2022-12-04T05:26:28;3.92;;;0.60;;
74867;SDS011;63419;42.262;12.210;2022-12-04T05:28:57;2.03;;;0.43;;
74867;SDS011;63419;42.262;12.210;2022-12-04T05:31:24;4.28;;;0.50;;
74867;SDS011;63419;42.262;12.210;2022-12-04T05:33:51;2.00;;;0.32;;
74867;SDS011;63419;42.262;12.210;2022-12-04T05:36:19;5.40;;;0.80;;
74867;SDS011;63419;42.262;12.210;2022-12-04T05:38:46;4.00;;;0.75;;
74867;SDS011;63419;42.262;12.210;2022-12-04T05:41:14;5.45;;;0.60;;
74867;SDS011;63419;42.262;12.210;2022-12-04T05:43:41;3.72;;;0.60;;
74867;SDS011;63419;42.262;12.210;2022-12-04T05:46:09;3.67;;;0.90;;
74867;SDS011;63419;42.262;12.210;2022-12-04T05:48:36;6.28;;;1.20;;
74867;SDS011;63419;42.262;12.210;2022-12-04T05:51:04;5.90;;;1.10;;
74867;SDS011;63419;42.262;12.210;2022-12-04T05:53:34;5.78;;;1.17;;
74867;SDS011;63419;42.262;12.210;2022-12-04T05:56:04;5.15;;;1.35;;
74867;SDS011;63419;42.262;12.210;2022-12-04T05:58:33;5.70;;;1.13;;
74867;SDS011;63419;42.262;12.210;2022-12-04T06:01:11;3.80;;;0.70;;
74867;SDS011;63419;42.262;12.210;2022-12-04T06:03:42;5.25;;;1.23;;
74867;SDS011;63419;42.262;12.210;2022-12-04T06:06:13;4.50;;;0.95;;
74867;SDS011;63419;42.262;12.210;2022-12-04T06:08:47;6.45;;;0.95;;
74867;SDS011;63419;42.262;12.210;2022-12-04T06:11:22;9.52;;;0.93;;
74867;SDS011;63419;42.262;12.210;2022-12-04T06:13:53;6.82;;;0.70;;
74867;SDS011;63419;42.262;12.210;2022-12-04T06:16:24;7.05;;;1.13;;
74867;SDS011;63419;42.262;12.210;2022-12-04T06:18:57;5.32;;;0.93;;
74867;SDS011;63419;42.262;12.210;2022-12-04T06:21:30;7.50;;;1.25;;
74867;SDS011;63419;42.262;12.210;2022-12-04T06:24:01;4.63;;;0.80;;
74867;SDS011;63419;42.262;12.210;2022-12-04T06:26:29;3.17;;;0.52;;
74867;SDS011;63419;42.262;12.210;2022-12-04T06:28:58;5.32;;;0.63;;
74867;SDS011;63419;42.262;12.210;2022-12-04T06:31:27;4.38;;;0.52;;
74867;SDS011;63419;42.262;12.210;2022-12-04T06:33:57;6.85;;;0.65;;
74867;SDS011;63419;42.262;12.210;2022-12-04T06:36:26;4.93;;;0.98;;
74867;SDS011;63419;42.262;12.210;2022-12-04T06:38:56;5.03;;;0.98;;
74867;SDS011;63419;42.262;12.210;2022-12-04T06:41:24;4.55;;;0.52;;
74867;SDS011;63419;42.262;12.210;2022-12-04T06:43:53;3.03;;;0.45;;
74867;SDS011;63419;42.262;12.210;2022-12-04T06:46:22;5.43;;;0.50;;
74867;SDS011;63419;42.262;12.210;2022-12-04T06:48:53;3.92;;;0.47;;
74867;SDS011;63419;42.262;12.210;2022-12-04T06:51:32;7.65;;;0.63;;
74867;SDS011;63419;42.262;12.210;2022-12-04T06:54:06;4.80;;;0.50;;
74867;SDS011;63419;42.262;12.210;2022-12-04T06:56:37;6.00;;;0.60;;
74867;SDS011;63419;42.262;12.210;2022-12-04T06:59:04;3.20;;;0.50;;
74867;SDS011;63419;42.262;12.210;2022-12-04T07:01:34;2.53;;;0.55;;
74867;SDS011;63419;42.262;12.210;2022-12-04T07:04:02;5.30;;;0.70;;
74867;SDS011;63419;42.262;12.210;2022-12-04T07:06:32;10.18;;;1.05;;
74867;SDS011;63419;42.262;12.210;2022-12-04T07:09:18;7.18;;;1.00;;
74867;SDS011;63419;42.262;12.210;2022-12-04T07:11:52;7.32;;;1.30;;
74867;SDS011;63419;42.262;12.210;2022-12-04T07:14:24;7.13;;;1.42;;
74867;SDS011;63419;42.262;12.210;2022-12-04T07:16:54;12.88;;;1.50;;
74867;SDS011;63419;42.262;12.210;2022-12-04T07:19:24;5.20;;;0.95;;
74867;SDS011;63419;42.262;12.210;2022-12-04T07:21:52;12.20;;;1.30;;
74867;SDS011;63419;42.262;12.210;2022-12-04T07:24:19;5.10;;;1.08;;
74867;SDS011;63419;42.262;12.210;2022-12-04T07:26:46;8.82;;;1.23;;
74867;SDS011;63419;42.262;12.210;2022-12-04T07:29:15;6.63;;;1.40;;
74867;SDS011;63419;42.262;12.210;2022-12-04T07:31:42;11.68;;;2.20;;
74867;SDS011;63419;42.262;12.210;2022-12-04T07:34:14;8.30;;;1.90;;
74867;SDS011;63419;42.262;12.210;2022-12-04T07:36:41;9.25;;;2.03;;
74867;SDS011;63419;42.262;12.210;2022-12-04T07:39:08;9.32;;;2.47;;
74867;SDS011;63419;42.262;12.210;2022-12-04T07:41:35;12.65;;;2.00;;
74867;SDS011;63419;42.262;12.210;2022-12-04T07:44:05;12.60;;;1.60;;
74867;SDS011;63419;42.262;12.210;2022-12-04T07:46:34;16.13;;;2.60;;
74867;SDS011;63419;42.262;12.210;2022-12-04T07:49:11;9.00;;;1.48;;
74867;SDS011;63419;42.262;12.210;2022-12-04T07:51:39;13.57;;;1.83;;
74867;SDS011;63419;42.262;12.210;2022-12-04T07:54:06;13.52;;;1.73;;
74867;SDS011;63419;42.262;12.210;2022-12-04T07:56:35;11.77;;;2.33;;
74867;SDS011;63419;42.262;12.210;2022-12-04T07:59:33;6.68;;;1.13;;
74867;SDS011;63419;42.262;12.210;2022-12-04T08:02:01;10.23;;;1.77;;
74867;SDS011;63419;42.262;12.210;2022-12-04T08:04:33;9.50;;;1.83;;
74867;SDS011;63419;42.262;12.210;2022-12-04T08:07:03;7.27;;;1.73;;
74867;SDS011;63419;42.262;12.210;2022-12-04T08:09:31;10.80;;;1.77;;
74867;SDS011;63419;42.262;12.210;2022-12-04T08:12:37;8.85;;;1.98;;
74867;SDS011;63419;42.262;12.210;2022-12-04T08:17:33;19.52;;;3.40;;
74867;SDS011;63419;42.262;12.210;2022-12-04T08:20:01;10.63;;;2.50;;
74867;SDS011;63419;42.262;12.210;2022-12-04T08:22:30;18.67;;;2.95;;
74867;SDS011;63419;42.262;12.210;2022-12-04T08:27:26;16.20;;;2.97;;
74867;SDS011;63419;42.262;12.210;2022-12-04T08:29:56;13.35;;;3.72;;
74867;SDS011;63419;42.262;12.210;2022-12-04T08:32:26;11.93;;;2.90;;
74867;SDS011;63419;42.262;12.210;2022-12-04T08:34:55;7.57;;;2.38;;
74867;SDS011;63419;42.262;12.210;2022-12-04T08:37:23;12.55;;;2.80;;
74867;SDS011;63419;42.262;12.210;2022-12-04T08:39:54;11.70;;;2.20;;
74867;SDS011;63419;42.262;12.210;2022-12-04T08:42:33;8.95;;;1.65;;
74867;SDS011;63419;42.262;12.210;2022-12-04T08:45:04;7.63;;;2.05;;
74867;SDS011;63419;42.262;12.210;2022-12-04T08:47:39;6.88;;;1.35;;
74867;SDS011;63419;42.262;12.210;2022-12-04T08:50:11;6.05;;;1.40;;
74867;SDS011;63419;42.262;12.210;2022-12-04T08:52:39;11.02;;;1.92;;
74867;SDS011;63419;42.262;12.210;2022-12-04T08:55:08;11.63;;;1.30;;
74867;SDS011;63419;42.262;12.210;2022-12-04T08:57:41;6.70;;;1.30;;
74867;SDS011;63419;42.262;12.210;2022-12-04T09:00:11;8.75;;;1.20;;
74867;SDS011;63419;42.262;12.210;2022-12-04T09:02:42;8.98;;;1.40;;
74867;SDS011;63419;42.262;12.210;2022-12-04T09:07:37;6.32;;;1.38;;
74867;SDS011;63419;42.262;12.210;2022-12-04T09:10:05;11.43;;;1.58;;
74867;SDS011;63419;42.262;12.210;2022-12-04T09:12:33;10.35;;;1.27;;
74867;SDS011;63419;42.262;12.210;2022-12-04T09:17:27;9.85;;;1.35;;
74867;SDS011;63419;42.262;12.210;2022-12-04T09:22:26;5.15;;;1.00;;
74867;SDS011;63419;42.262;12.210;2022-12-04T09:25:11;5.47;;;0.98;;
74867;SDS011;63419;42.262;12.210;2022-12-04T09:27:38;7.93;;;0.90;;
74867;SDS011;63419;42.262;12.210;2022-12-04T09:30:08;6.55;;;1.83;;
74867;SDS011;63419;42.262;12.210;2022-12-04T09:32:38;9.25;;;1.58;;
74867;SDS011;63419;42.262;12.210;2022-12-04T09:35:06;4.10;;;1.00;;
74867;SDS011;63419;42.262;12.210;2022-12-04T09:37:37;6.35;;;0.80;;
74867;SDS011;63419;42.262;12.210;2022-12-04T09:40:06;10.88;;;1.38;;
74867;SDS011;63419;42.262;12.210;2022-12-04T09:45:33;7.80;;;1.33;;
74867;SDS011;63419;42.262;12.210;2022-12-04T09:48:38;5.95;;;0.80;;
74867;SDS011;63419;42.262;12.210;2022-12-04T09:51:11;7.88;;;1.55;;
74867;SDS011;63419;42.262;12.210;2022-12-04T09:53:49;10.40;;;0.95;;
74867;SDS011;63419;42.262;12.210;2022-12-04T09:56:27;5.53;;;0.77;;
74867;SDS011;63419;42.262;12.210;2022-12-04T09:59:01;7.30;;;0.45;;
74867;SDS011;63419;42.262;12.210;2022-12-04T10:02:01;7.65;;;0.80;;
74867;SDS011;63419;42.262;12.210;2022-12-04T10:05:19;5.82;;;0.70;;
74867;SDS011;63419;42.262;12.210;2022-12-04T10:22:44;3.08;;;0.93;;
74867;SDS011;63419;42.262;12.210;2022-12-04T10:25:39;9.93;;;3.42;;
74867;SDS011;63419;42.262;12.210;2022-12-04T10:31:08;11.32;;;5.68;;
74867;SDS011;63419;42.262;12.210;2022-12-04T10:33:52;7.03;;;1.17;;
74867;SDS011;63419;42.262;12.210;2022-12-04T10:36:34;8.07;;;1.63;;
74867;SDS011;63419;42.262;12.210;2022-12-04T10:39:13;14.32;;;6.70;;
74867;SDS011;63419;42.262;12.210;2022-12-04T10:41:55;11.40;;;1.75;;
74867;SDS011;63419;42.262;12.210;2022-12-04T10:44:32;8.20;;;1.10;;
74867;SDS011;63419;42.262;12.210;2022-12-04T10:47:02;11.52;;;1.30;;
74867;SDS011;63419;42.262;12.210;2022-12-04T10:49:33;9.20;;;1.60;;
74867;SDS011;63419;42.262;12.210;2022-12-04T10:52:06;8.00;;;1.02;;
74867;SDS011;63419;42.262;12.210;2022-12-04T10:54:45;4.97;;;1.77;;
74867;SDS011;63419;42.262;12.210;2022-12-04T10:57:38;6.28;;;1.02;;
74867;SDS011;63419;42.262;12.210;2022-12-04T11:00:31;10.30;;;1.17;;
74867;SDS011;63419;42.262;12.210;2022-12-04T11:03:04;10.90;;;1.17;;
74867;SDS011;63419;42.262;12.210;2022-12-04T11:06:03;6.82;;;1.02;;
74867;SDS011;63419;42.262;12.210;2022-12-04T11:08:43;9.25;;;2.40;;
74867;SDS011;63419;42.262;12.210;2022-12-04T11:11:22;8.32;;;1.33;;
74867;SDS011;63419;42.262;12.210;2022-12-04T11:14:05;5.82;;;1.25;;
74867;SDS011;63419;42.262;12.210;2022-12-04T11:16:41;8.55;;;1.88;;
74867;SDS011;63419;42.262;12.210;2022-12-04T11:19:27;5.03;;;1.10;;
74867;SDS011;63419;42.262;12.210;2022-12-04T11:21:59;9.55;;;2.15;;
74867;SDS011;63419;42.262;12.210;2022-12-04T11:24:38;14.82;;;6.22;;
74867;SDS011;63419;42.262;12.210;2022-12-04T11:27:15;7.28;;;1.67;;
74867;SDS011;63419;42.262;12.210;2022-12-04T11:29:59;9.25;;;1.98;;
74867;SDS011;63419;42.262;12.210;2022-12-04T11:33:00;10.63;;;2.05;;
74867;SDS011;63419;42.262;12.210;2022-12-04T11:35:34;12.88;;;2.92;;
74867;SDS011;63419;42.262;12.210;2022-12-04T11:38:36;8.43;;;2.13;;
74867;SDS011;63419;42.262;12.210;2022-12-04T11:41:00;3.67;;;1.08;;
74867;SDS011;63419;42.262;12.210;2022-12-04T11:43:33;6.57;;;1.42;;
74867;SDS011;63419;42.262;12.210;2022-12-04T11:46:21;11.40;;;2.20;;
74867;SDS011;63419;42.262;12.210;2022-12-04T11:48:52;7.82;;;1.38;;
74867;SDS011;63419;42.262;12.210;2022-12-04T12:00:03;11.27;;;4.75;;
74867;SDS011;63419;42.262;12.210;2022-12-04T12:06:24;5.43;;;1.45;;
74867;SDS011;63419;42.262;12.210;2022-12-04T12:22:15;11.02;;;4.30;;
74867;SDS011;63419;42.262;12.210;2022-12-04T12:25:20;8.45;;;1.13;;
74867;SDS011;63419;42.262;12.210;2022-12-04T12:31:08;8.45;;;1.60;;
74867;SDS011;63419;42.262;12.210;2022-12-04T12:33:53;8.25;;;3.47;;
74867;SDS011;63419;42.262;12.210;2022-12-04T12:36:28;12.23;;;2.00;;
74867;SDS011;63419;42.262;12.210;2022-12-04T12:39:33;11.05;;;3.13;;
74867;SDS011;63419;42.262;12.210;2022-12-04T12:42:11;11.00;;;2.40;;
74867;SDS011;63419;42.262;12.210;2022-12-04T12:44:54;12.80;;;3.08;;
74867;SDS011;63419;42.262;12.210;2022-12-04T12:48:08;28.13;;;10.95;;
74867;SDS011;63419;42.262;12.210;2022-12-04T12:51:00;8.18;;;2.47;;
74867;SDS011;63419;42.262;12.210;2022-12-04T12:54:13;5.50;;;1.20;;
74867;SDS011;63419;42.262;12.210;2022-12-04T12:56:59;5.32;;;1.02;;
74867;SDS011;63419;42.262;12.210;2022-12-04T12:59:46;5.72;;;0.80;;
74867;SDS011;63419;42.262;12.210;2022-12-04T13:02:29;9.65;;;1.00;;
74867;SDS011;63419;42.262;12.210;2022-12-04T13:05:30;6.68;;;0.90;;
74867;SDS011;63419;42.262;12.210;2022-12-04T13:13:53;4.85;;;1.58;;
74867;SDS011;63419;42.262;12.210;2022-12-04T13:19:37;38.90;;;18.75;;
74867;SDS011;63419;42.262;12.210;2022-12-04T13:22:46;8.98;;;1.73;;
74867;SDS011;63419;42.262;12.210;2022-12-04T13:31:39;10.00;;;2.60;;
74867;SDS011;63419;42.262;12.210;2022-12-04T13:34:58;8.23;;;2.22;;
74867;SDS011;63419;42.262;12.210;2022-12-04T13:38:07;9.38;;;2.60;;
74867;SDS011;63419;42.262;12.210;2022-12-04T13:41:19;12.95;;;3.03;;
74867;SDS011;63419;42.262;12.210;2022-12-04T13:43:53;21.13;;;8.77;;
74867;SDS011;63419;42.262;12.210;2022-12-04T13:46:33;25.75;;;12.48;;
74867;SDS011;63419;42.262;12.210;2022-12-04T13:49:36;21.05;;;9.07;;
74867;SDS011;63419;42.262;12.210;2022-12-04T13:52:35;7.55;;;2.35;;
74867;SDS011;63419;42.262;12.210;2022-12-04T13:58:02;6.63;;;1.38;;
74867;SDS011;63419;42.262;12.210;2022-12-04T14:00:37;7.90;;;1.75;;
74867;SDS011;63419;42.262;12.210;2022-12-04T14:06:27;10.55;;;1.90;;
74867;SDS011;63419;42.262;12.210;2022-12-04T14:09:26;7.68;;;1.60;;
74867;SDS011;63419;42.262;12.210;2022-12-04T14:12:12;7.22;;;2.38;;
74867;SDS011;63419;42.262;12.210;2022-12-04T14:15:19;9.15;;;2.38;;
74867;SDS011;63419;42.262;12.210;2022-12-04T14:18:24;7.47;;;3.38;;
74867;SDS011;63419;42.262;12.210;2022-12-04T14:20:57;8.55;;;1.60;;
74867;SDS011;63419;42.262;12.210;2022-12-04T14:23:38;5.70;;;1.42;;
74867;SDS011;63419;42.262;12.210;2022-12-04T14:26:20;11.05;;;3.88;;
74867;SDS011;63419;42.262;12.210;2022-12-04T14:29:33;15.02;;;8.48;;
74867;SDS011;63419;42.262;12.210;2022-12-04T14:32:20;13.65;;;3.72;;
74867;SDS011;63419;42.262;12.210;2022-12-04T14:34:54;22.60;;;7.80;;
74867;SDS011;63419;42.262;12.210;2022-12-04T14:37:32;21.73;;;10.20;;
74867;SDS011;63419;42.262;12.210;2022-12-04T14:40:13;20.40;;;7.65;;
74867;SDS011;63419;42.262;12.210;2022-12-04T14:42:48;18.58;;;7.95;;
74867;SDS011;63419;42.262;12.210;2022-12-04T14:45:30;8.55;;;4.22;;
74867;SDS011;63419;42.262;12.210;2022-12-04T14:51:09;16.90;;;7.45;;
74867;SDS011;63419;42.262;12.210;2022-12-04T14:59:42;17.48;;;5.80;;
74867;SDS011;63419;42.262;12.210;2022-12-04T15:02:37;29.13;;;16.00;;
74867;SDS011;63419;42.262;12.210;2022-12-04T15:05:09;8.35;;;2.65;;
74867;SDS011;63419;42.262;12.210;2022-12-04T15:07:48;13.45;;;5.88;;
74867;SDS011;63419;42.262;12.210;2022-12-04T15:10:21;10.68;;;4.00;;
74867;SDS011;63419;42.262;12.210;2022-12-04T15:13:10;11.50;;;3.17;;
74867;SDS011;63419;42.262;12.210;2022-12-04T15:15:44;19.77;;;8.20;;
74867;SDS011;63419;42.262;12.210;2022-12-04T15:18:13;17.80;;;8.98;;
74867;SDS011;63419;42.262;12.210;2022-12-04T15:23:20;20.90;;;9.32;;
74867;SDS011;63419;42.262;12.210;2022-12-04T15:26:01;44.33;;;20.20;;
74867;SDS011;63419;42.262;12.210;2022-12-04T15:31:14;15.40;;;7.70;;
74867;SDS011;63419;42.262;12.210;2022-12-04T15:33:59;16.15;;;7.72;;
74867;SDS011;63419;42.262;12.210;2022-12-04T15:39:16;17.58;;;7.60;;
74867;SDS011;63419;42.262;12.210;2022-12-04T15:42:02;13.00;;;6.47;;
74867;SDS011;63419;42.262;12.210;2022-12-04T15:44:59;13.85;;;6.35;;
74867;SDS011;63419;42.262;12.210;2022-12-04T15:47:36;16.00;;;6.07;;
74867;SDS011;63419;42.262;12.210;2022-12-04T15:55:29;16.90;;;8.57;;
74867;SDS011;63419;42.262;12.210;2022-12-04T15:58:18;20.45;;;8.20;;
74867;SDS011;63419;42.262;12.210;2022-12-04T16:00:56;15.45;;;7.10;;
74867;SDS011;63419;42.262;12.210;2022-12-04T16:06:14;20.13;;;8.27;;
74867;SDS011;63419;42.262;12.210;2022-12-04T16:08:55;18.40;;;9.85;;
74867;SDS011;63419;42.262;12.210;2022-12-04T16:11:55;20.38;;;10.13;;
74867;SDS011;63419;42.262;12.210;2022-12-04T16:14:27;18.35;;;7.97;;
74867;SDS011;63419;42.262;12.210;2022-12-04T16:16:58;16.38;;;7.55;;
74867;SDS011;63419;42.262;12.210;2022-12-04T16:22:03;19.67;;;10.75;;
74867;SDS011;63419;42.262;12.210;2022-12-04T16:24:46;19.33;;;10.43;;
74867;SDS011;63419;42.262;12.210;2022-12-04T16:27:19;20.25;;;9.40;;
74867;SDS011;63419;42.262;12.210;2022-12-04T16:29:50;12.42;;;6.96;;
74867;SDS011;63419;42.262;12.210;2022-12-04T16:32:20;18.98;;;10.05;;
74867;SDS011;63419;42.262;12.210;2022-12-04T16:34:59;23.75;;;10.70;;
74867;SDS011;63419;42.262;12.210;2022-12-04T16:37:28;15.02;;;7.57;;
74867;SDS011;63419;42.262;12.210;2022-12-04T16:39:57;15.52;;;7.80;;
74867;SDS011;63419;42.262;12.210;2022-12-04T16:42:26;19.48;;;8.10;;
74867;SDS011;63419;42.262;12.210;2022-12-04T16:44:59;29.60;;;16.42;;
74867;SDS011;63419;42.262;12.210;2022-12-04T16:47:27;15.57;;;7.97;;
74867;SDS011;63419;42.262;12.210;2022-12-04T16:49:54;11.43;;;6.15;;
74867;SDS011;63419;42.262;12.210;2022-12-04T16:52:23;10.98;;;6.07;;
74867;SDS011;63419;42.262;12.210;2022-12-04T16:54:52;17.95;;;7.75;;
74867;SDS011;63419;42.262;12.210;2022-12-04T16:57:19;20.15;;;9.93;;
74867;SDS011;63419;42.262;12.210;2022-12-04T16:59:47;39.20;;;19.98;;
74867;SDS011;63419;42.262;12.210;2022-12-04T17:02:16;32.70;;;17.17;;
74867;SDS011;63419;42.262;12.210;2022-12-04T17:04:52;25.65;;;14.90;;
74867;SDS011;63419;42.262;12.210;2022-12-04T17:07:23;27.17;;;13.57;;
74867;SDS011;63419;42.262;12.210;2022-12-04T17:09:55;30.80;;;13.10;;
74867;SDS011;63419;42.262;12.210;2022-12-04T17:12:25;21.27;;;10.65;;
74867;SDS011;63419;42.262;12.210;2022-12-04T17:14:53;22.20;;;10.25;;
74867;SDS011;63419;42.262;12.210;2022-12-04T17:17:21;34.60;;;19.10;;
74867;SDS011;63419;42.262;12.210;2022-12-04T17:19:48;18.67;;;8.05;;
74867;SDS011;63419;42.262;12.210;2022-12-04T17:22:17;16.35;;;8.18;;
74867;SDS011;63419;42.262;12.210;2022-12-04T17:24:49;88.15;;;37.85;;
74867;SDS011;63419;42.262;12.210;2022-12-04T17:27:22;22.85;;;9.18;;
74867;SDS011;63419;42.262;12.210;2022-12-04T17:29:52;92.53;;;47.03;;
74867;SDS011;63419;42.262;12.210;2022-12-04T17:32:22;20.83;;;10.43;;
74867;SDS011;63419;42.262;12.210;2022-12-04T17:37:19;20.40;;;10.35;;
74867;SDS011;63419;42.262;12.210;2022-12-04T17:39:47;21.75;;;10.35;;
74867;SDS011;63419;42.262;12.210;2022-12-04T17:42:15;20.42;;;8.50;;
74867;SDS011;63419;42.262;12.210;2022-12-04T17:44:43;29.70;;;17.52;;
74867;SDS011;63419;42.262;12.210;2022-12-04T17:47:13;23.38;;;12.15;;
74867;SDS011;63419;42.262;12.210;2022-12-04T17:49:41;25.27;;;14.25;;
74867;SDS011;63419;42.262;12.210;2022-12-04T17:52:08;27.75;;;13.95;;
74867;SDS011;63419;42.262;12.210;2022-12-04T17:54:36;28.35;;;15.38;;
74867;SDS011;63419;42.262;12.210;2022-12-04T17:57:04;26.60;;;12.98;;
74867;SDS011;63419;42.262;12.210;2022-12-04T17:59:32;21.70;;;10.63;;
74867;SDS011;63419;42.262;12.210;2022-12-04T18:01:59;22.50;;;9.85;;
74867;SDS011;63419;42.262;12.210;2022-12-04T18:04:26;38.45;;;19.92;;
74867;SDS011;63419;42.262;12.210;2022-12-04T18:06:54;31.38;;;11.30;;
74867;SDS011;63419;42.262;12.210;2022-12-04T18:09:23;31.60;;;16.65;;
74867;SDS011;63419;42.262;12.210;2022-12-04T18:11:50;25.92;;;12.63;;
74867;SDS011;63419;42.262;12.210;2022-12-04T18:16:50;35.45;;;19.33;;
74867;SDS011;63419;42.262;12.210;2022-12-04T18:19:21;29.02;;;12.93;;